aviador You're here:

KMAO Decoded Metar

MARION in SC, USA
Report Time2017-12-15 23:15:00
UTC Time2017-12-15 23:32:51
Flight Rules vfr VFR
Wind250° at 06 kt
W.Decomp.*RWY 22: 4.9 kt HW 3.5 kt RCW
W.Rank250° ranks 16
Current wind is below 250° avg. (7.4)
Visibility9999 m
Phenomena:N/A
Clouds:N/A
Expected CloudBase > 3,200 ft AGL from Temp-Dew spread
CeilingNone
Temp11°C (ISA -4)
Dew Point03°C (58% RH)
AAT7.3°C
QNH1015 hPa
Density Alt-328 ft
Elevation92 ft
Report Wrong Elevation
Raw Report
METAR KMAO 152315Z AUTO 25006KT 10SM CLR 11/03 A2998 RMK AO2=

Extra information for KMAO:More info

Metar Taf Metar & Taf Last 4 Metars F.Rules Stats Wind Profile Meteogram Temp Stats Airport Information Weather charts Add Link Nearby VenuesMetar ALERT Operation Metar Decoded Social comments

AIRNAV info for KMAO